createdAt,value
2019-02-15T00:00:11.264Z,95936.11
2019-02-15T00:02:37.266Z,95938.77
2019-02-15T00:05:03.287Z,95940.09
2019-02-15T00:07:29.290Z,95942.25
2019-02-15T00:09:55.288Z,95939.66
2019-02-15T00:12:21.296Z,95938.34
2019-02-15T00:14:47.290Z,95939.25
2019-02-15T00:17:13.284Z,95937.44
2019-02-15T00:19:39.284Z,95937.53
2019-02-15T00:22:05.275Z,95939.25
2019-02-15T00:24:31.280Z,95941.41
2019-02-15T00:26:57.287Z,95938.77
2019-02-15T00:29:23.288Z,95933.88
2019-02-15T00:31:49.285Z,95934.78
2019-02-15T00:34:15.289Z,95935.20
2019-02-15T00:36:41.289Z,95929.97
2019-02-15T00:39:07.300Z,95932.62
2019-02-15T00:41:33.294Z,95929.06
2019-02-15T00:43:59.297Z,95927.83
2019-02-15T00:46:25.290Z,95922.42
2019-02-15T00:48:51.293Z,95922.00
2019-02-15T00:51:17.290Z,95915.89
2019-02-15T00:53:43.283Z,95922.95
2019-02-15T00:56:09.282Z,95918.13
2019-02-15T00:58:35.283Z,95919.45
2019-02-15T01:01:01.292Z,95923.33
2019-02-15T01:03:27.289Z,95924.34
2019-02-15T01:05:53.296Z,95916.80
2019-02-15T01:08:19.286Z,95921.62
2019-02-15T01:10:45.290Z,95911.98
2019-02-15T01:13:11.291Z,95911.50
2019-02-15T01:15:37.285Z,95914.56
2019-02-15T01:18:03.295Z,95915.89
2019-02-15T01:20:29.305Z,95916.37
2019-02-15T01:22:55.299Z,95925.66
2019-02-15T01:25:21.300Z,95918.71
2019-02-15T01:27:47.337Z,95922.59
2019-02-15T01:30:13.339Z,95922.17
2019-02-15T01:32:39.335Z,95921.27
2019-02-15T01:35:05.332Z,95917.80
2019-02-15T01:37:31.337Z,95918.36
2019-02-15T01:39:57.333Z,95920.94
2019-02-15T01:42:23.344Z,95918.29
2019-02-15T01:44:49.344Z,95924.92
2019-02-15T01:47:15.344Z,95919.30
2019-02-15T01:49:41.345Z,95923.66
2019-02-15T01:52:07.345Z,95922.85
2019-02-15T01:54:33.341Z,95919.30
2019-02-15T01:56:59.338Z,95915.80
2019-02-15T01:59:25.332Z,95920.69
2019-02-15T02:01:51.421Z,95922.92
2019-02-15T02:04:17.418Z,95922.92
2019-02-15T02:06:43.411Z,95919.84
2019-02-15T02:09:09.414Z,95911.41
2019-02-15T02:11:35.413Z,95918.45
2019-02-15T02:14:01.404Z,95911.83
2019-02-15T02:16:27.457Z,95912.73
2019-02-15T02:18:53.408Z,95913.05
2019-02-15T02:21:19.395Z,95907.42
2019-02-15T02:23:45.392Z,95899.95
2019-02-15T02:26:11.384Z,95906.59
2019-02-15T02:28:37.386Z,95900.80
2019-02-15T02:31:03.381Z,95906.59
2019-02-15T02:33:29.385Z,95897.30
2019-02-15T02:35:55.379Z,95899.47
2019-02-15T02:38:21.386Z,95899.47
2019-02-15T02:40:47.380Z,95900.80
2019-02-15T02:43:13.387Z,95896.81
2019-02-15T02:45:39.404Z,95899.95
2019-02-15T02:48:05.438Z,95896.40
2019-02-15T02:50:31.437Z,95892.00
2019-02-15T02:52:57.431Z,95896.89
2019-02-15T02:55:23.426Z,95891.09
2019-02-15T02:57:49.429Z,95894.16
2019-02-15T03:00:15.421Z,95892.84
2019-02-15T03:02:41.426Z,95906.10
2019-02-15T03:05:07.414Z,95903.94
2019-02-15T03:07:33.422Z,95904.77
2019-02-15T03:09:59.412Z,95901.70
2019-02-15T03:12:25.416Z,95904.94
2019-02-15T03:14:51.417Z,95909.23
2019-02-15T03:17:17.415Z,95904.84
2019-02-15T03:19:43.424Z,95899.95
2019-02-15T03:22:09.405Z,95902.19
2019-02-15T03:24:35.416Z,95903.13
2019-02-15T03:27:01.405Z,95901.37
2019-02-15T03:29:27.402Z,95906.27
2019-02-15T03:31:53.420Z,95905.26
2019-02-15T03:34:19.468Z,95908.82
2019-02-15T03:36:45.461Z,95910.25
2019-02-15T03:39:11.463Z,95908.98
2019-02-15T03:41:37.465Z,95910.25
2019-02-15T03:44:03.467Z,95916.88
2019-02-15T03:46:29.471Z,95915.97
2019-02-15T03:48:55.499Z,95913.80
2019-02-15T03:51:21.514Z,95912.97
2019-02-15T03:53:47.518Z,95910.41
2019-02-15T03:56:13.519Z,95917.04
2019-02-15T03:58:39.523Z,95912.22
2019-02-15T04:01:05.527Z,95914.45
2019-02-15T04:03:31.537Z,95916.63
2019-02-15T04:05:57.535Z,95909.25
2019-02-15T04:08:23.569Z,95907.44
2019-02-15T04:10:49.563Z,95909.25
2019-02-15T04:13:15.601Z,95910.09
2019-02-15T04:15:41.614Z,95911.31
2019-02-15T04:18:07.601Z,95919.27
2019-02-15T04:20:33.604Z,95918.85
2019-02-15T04:22:59.606Z,95925.48
2019-02-15T04:25:25.625Z,95924.25
2019-02-15T04:27:51.625Z,95925.16
2019-02-15T04:30:17.618Z,95928.66
2019-02-15T04:32:43.618Z,95933.44
2019-02-15T04:35:09.620Z,95938.32
2019-02-15T04:37:35.619Z,95935.19
2019-02-15T04:40:01.611Z,95937.00
2019-02-15T04:42:27.614Z,95942.30
2019-02-15T04:44:53.614Z,95945.89
2019-02-15T04:47:19.638Z,95945.80
2019-02-15T04:49:45.630Z,95947.87
2019-02-15T04:52:11.637Z,95950.20
2019-02-15T04:54:37.639Z,95956.83
2019-02-15T04:57:03.631Z,95956.41
2019-02-15T04:59:29.630Z,95957.31
2019-02-15T05:01:55.623Z,95953.75
2019-02-15T05:04:21.624Z,95957.31
2019-02-15T05:06:47.643Z,95963.45
2019-02-15T05:09:13.643Z,95965.33
2019-02-15T05:11:39.640Z,95970.64
2019-02-15T05:14:05.638Z,95977.78
2019-02-15T05:16:31.661Z,95983.51
2019-02-15T05:18:57.660Z,95986.41
2019-02-15T05:21:23.665Z,95986.58
2019-02-15T05:23:49.655Z,95995.37
2019-02-15T05:26:15.652Z,95990.91
2019-02-15T05:28:41.646Z,95994.14
2019-02-15T05:31:07.666Z,95998.11
2019-02-15T05:33:35.598Z,95996.20
2019-02-15T05:35:59.708Z,96007.08
2019-02-15T05:38:25.741Z,96018.17
2019-02-15T05:40:51.713Z,96012.70
2019-02-15T05:43:17.742Z,96022.34
2019-02-15T05:45:43.744Z,96021.27
2019-02-15T05:48:09.744Z,96030.39
2019-02-15T05:50:35.744Z,96023.24
2019-02-15T05:53:01.785Z,96028.22
2019-02-15T05:55:27.777Z,96033.95
2019-02-15T05:57:53.783Z,96036.21
2019-02-15T06:00:19.851Z,96037.44
2019-02-15T06:02:45.854Z,96044.48
2019-02-15T06:05:11.939Z,96052.77
2019-02-15T06:07:37.934Z,96058.44
2019-02-15T06:10:03.937Z,96057.53
2019-02-15T06:12:29.942Z,96060.51
2019-02-15T06:14:55.939Z,96059.44
2019-02-15T06:17:21.944Z,96059.44
2019-02-15T06:19:48.069Z,96068.63
2019-02-15T06:22:13.976Z,96060.08
2019-02-15T06:24:39.980Z,96057.78
2019-02-15T06:27:06.032Z,96063.52
2019-02-15T06:29:31.988Z,96064.32
2019-02-15T06:31:57.993Z,96065.48
2019-02-15T06:34:24.050Z,96070.63
2019-02-15T06:36:50.032Z,96069.72
2019-02-15T06:39:16.026Z,96073.22
2019-02-15T06:41:42.069Z,96078.00
2019-02-15T06:44:08.130Z,96077.45
2019-02-15T06:46:34.129Z,96082.66
2019-02-15T06:49:00.135Z,96086.64
2019-02-15T06:51:26.181Z,96093.11
2019-02-15T06:53:52.183Z,96096.13
2019-02-15T06:56:18.248Z,96094.80
2019-02-15T06:58:45.872Z,96098.69
2019-02-15T07:01:10.284Z,96100.33
2019-02-15T07:03:36.298Z,96096.28
2019-02-15T07:06:02.293Z,96104.25
2019-02-15T07:08:28.311Z,96110.78
2019-02-15T07:10:54.310Z,96112.95
2019-02-15T07:13:20.366Z,96107.64
2019-02-15T07:15:46.323Z,96107.16
2019-02-15T07:18:12.414Z,96106.16
2019-02-15T07:20:38.416Z,96113.70
2019-02-15T07:23:04.412Z,96109.23
2019-02-15T07:25:30.461Z,96106.16
2019-02-15T07:27:56.557Z,96111.40
2019-02-15T07:30:22.497Z,96116.13
2019-02-15T07:32:48.503Z,96108.58
2019-02-15T07:35:14.513Z,96106.67
2019-02-15T07:37:40.528Z,96112.79
2019-02-15T07:40:06.525Z,96111.88
2019-02-15T07:42:32.529Z,96102.17
2019-02-15T07:44:58.540Z,96103.01
2019-02-15T07:47:24.536Z,96098.13
2019-02-15T07:49:50.564Z,96089.67
2019-02-15T07:52:16.568Z,96087.83
2019-02-15T07:54:42.570Z,96078.05
2019-02-15T07:57:08.564Z,96085.11
2019-02-15T07:59:34.583Z,96088.56
2019-02-15T08:02:02.071Z,96089.41
2019-02-15T08:04:26.653Z,96094.23
2019-02-15T08:06:52.697Z,96093.71
2019-02-15T08:09:18.696Z,96093.71
2019-02-15T08:11:44.703Z,96092.73
2019-02-15T08:14:14.763Z,96102.94
2019-02-15T08:16:38.675Z,96101.61
2019-02-15T08:19:02.687Z,96107.77
2019-02-15T08:21:28.697Z,96111.33
2019-02-15T08:23:54.698Z,96109.48
2019-02-15T08:26:20.709Z,96116.95
2019-02-15T08:28:46.715Z,96109.90
2019-02-15T08:31:12.772Z,96120.45
2019-02-15T08:33:38.737Z,96114.23
2019-02-15T08:36:04.757Z,96120.36
2019-02-15T08:38:30.753Z,96123.53
2019-02-15T08:40:56.817Z,96128.32
2019-02-15T08:43:22.816Z,96129.58
2019-02-15T08:45:48.821Z,96122.95
2019-02-15T08:48:14.853Z,96125.59
2019-02-15T08:50:41.348Z,96130.48
2019-02-15T08:53:07.322Z,96123.78
2019-02-15T08:55:33.334Z,96121.13
2019-02-15T08:57:59.401Z,96134.80
2019-02-15T09:00:25.425Z,96131.23
2019-02-15T09:02:51.470Z,96136.96
2019-02-15T09:05:17.514Z,96130.81
2019-02-15T09:07:43.504Z,96133.89
2019-02-15T09:10:09.510Z,96135.64
2019-02-15T09:12:35.511Z,96138.78
2019-02-15T09:15:01.515Z,96138.71
2019-02-15T09:17:27.526Z,96141.27
2019-02-15T09:19:53.563Z,96141.78
2019-02-15T09:22:19.568Z,96147.52
2019-02-15T09:24:45.570Z,96144.77
2019-02-15T09:27:11.577Z,96145.77
2019-02-15T09:29:37.568Z,96147.00
2019-02-15T09:32:03.568Z,96145.67
2019-02-15T09:34:29.583Z,96152.24
2019-02-15T09:36:55.600Z,96142.11
2019-02-15T09:39:23.292Z,96151.83
2019-02-15T09:41:49.431Z,96157.98
2019-02-15T09:44:15.422Z,96153.58
2019-02-15T09:46:41.420Z,96152.98
2019-02-15T09:49:07.429Z,96156.48
2019-02-15T09:51:33.422Z,96156.88
2019-02-15T09:53:59.428Z,96161.80
2019-02-15T09:56:25.424Z,96155.16
2019-02-15T09:58:51.432Z,96150.07
2019-02-15T10:01:17.462Z,96147.03
2019-02-15T10:03:43.460Z,96150.49
2019-02-15T10:06:09.466Z,96148.74
2019-02-15T10:08:35.534Z,96147.52
2019-02-15T10:11:01.612Z,96150.84
2019-02-15T10:13:27.657Z,96148.58
2019-02-15T10:15:53.675Z,96150.69
2019-02-15T10:18:22.188Z,96152.01
2019-02-15T10:20:48.186Z,96152.82
2019-02-15T10:23:14.197Z,96157.19
2019-02-15T10:25:40.200Z,96150.39
2019-02-15T10:28:06.206Z,96155.77
2019-02-15T10:30:32.210Z,96160.66
2019-02-15T10:32:58.231Z,96163.15
2019-02-15T10:35:24.236Z,96161.92
2019-02-15T10:37:50.243Z,96166.32
2019-02-15T10:40:16.278Z,96172.02
2019-02-15T10:42:42.277Z,96173.34
2019-02-15T10:45:08.281Z,96173.70
2019-02-15T10:47:34.279Z,96179.08
2019-02-15T10:50:00.300Z,96174.94
2019-02-15T10:52:26.275Z,96177.17
2019-02-15T10:54:52.285Z,96167.39
2019-02-15T10:57:18.276Z,96173.55
2019-02-15T10:59:44.277Z,96173.38
2019-02-15T11:02:10.303Z,96176.45
2019-02-15T11:04:36.326Z,96168.81
2019-02-15T11:07:02.323Z,96181.60
2019-02-15T11:09:28.338Z,96178.11
2019-02-15T11:11:54.338Z,96183.00
2019-02-15T11:14:20.351Z,96183.84
2019-02-15T11:16:47.554Z,96189.95
2019-02-15T11:19:12.498Z,96186.91
2019-02-15T11:21:38.492Z,96187.47
2019-02-15T11:24:04.499Z,96189.05
2019-02-15T11:26:30.499Z,96194.78
2019-02-15T11:28:56.504Z,96187.56
2019-02-15T11:31:22.498Z,96188.50
2019-02-15T11:33:48.502Z,96188.82
2019-02-15T11:36:14.570Z,96183.02
2019-02-15T11:38:40.588Z,96184.25
2019-02-15T11:41:11.188Z,96184.73
2019-02-15T11:43:32.587Z,96185.68
2019-02-15T11:45:58.587Z,96185.26
2019-02-15T11:48:24.578Z,96180.37
2019-02-15T11:50:50.579Z,96179.78
2019-02-15T11:53:16.584Z,96181.59
2019-02-15T11:55:42.597Z,96180.27
2019-02-15T11:58:08.591Z,96189.08
2019-02-15T12:00:34.618Z,96192.16
2019-02-15T12:03:00.617Z,96190.31
2019-02-15T12:05:26.634Z,96192.90
2019-02-15T12:07:52.632Z,96196.72
2019-02-15T12:10:18.636Z,96195.39
2019-02-15T12:12:44.714Z,96189.17
2019-02-15T12:15:10.763Z,96188.33
2019-02-15T12:17:36.802Z,96187.42
2019-02-15T12:20:03.043Z,96186.00
2019-02-15T12:22:29.055Z,96190.08
2019-02-15T12:24:55.104Z,96189.08
2019-02-15T12:27:21.121Z,96186.42
2019-02-15T12:29:47.148Z,96186.16
2019-02-15T12:32:13.134Z,96192.99
2019-02-15T12:34:39.125Z,96185.19
2019-02-15T12:39:49.136Z,96188.06
2019-02-15T12:42:15.138Z,96184.50
2019-02-15T12:44:41.171Z,96182.76
2019-02-15T12:47:14.821Z,96175.20
2019-02-15T12:49:33.185Z,96176.95
2019-02-15T12:51:59.184Z,96175.78
2019-02-15T12:54:25.195Z,96180.61
2019-02-15T12:56:51.287Z,96172.22
2019-02-15T12:59:17.298Z,96165.84
2019-02-15T13:01:43.303Z,96173.16
2019-02-15T13:04:09.309Z,96168.09
2019-02-15T13:06:35.314Z,96173.48
2019-02-15T13:09:01.311Z,96171.14
2019-02-15T13:11:27.315Z,96170.17
2019-02-15T13:13:53.319Z,96171.41
2019-02-15T13:16:19.330Z,96172.83
2019-02-15T13:18:45.360Z,96174.06
2019-02-15T13:21:11.582Z,96173.73
2019-02-15T13:23:37.592Z,96176.81
2019-02-15T13:26:08.538Z,96173.90
2019-02-15T13:28:29.828Z,96182.45
2019-02-15T13:30:55.832Z,96179.20
2019-02-15T13:33:21.840Z,96182.22
2019-02-15T13:35:47.846Z,96183.13
2019-02-15T13:38:14.084Z,96191.68
2019-02-15T13:40:40.080Z,96185.36
2019-02-15T13:43:06.092Z,96186.62
2019-02-15T13:45:32.087Z,96187.43
2019-02-15T13:47:58.086Z,96198.90
2019-02-15T13:50:24.103Z,96196.73
2019-02-15T13:52:50.106Z,96193.91
2019-02-15T13:55:16.120Z,96198.31
2019-02-15T13:57:42.232Z,96198.64
2019-02-15T14:00:08.231Z,96195.07
2019-02-15T14:02:34.233Z,96195.33
2019-02-15T14:05:00.381Z,96194.74
2019-02-15T14:07:26.243Z,96197.14
2019-02-15T14:09:55.015Z,96193.33
2019-02-15T14:12:21.137Z,96190.18
2019-02-15T14:14:47.139Z,96190.77
2019-02-15T14:17:13.392Z,96188.43
2019-02-15T14:19:39.586Z,96190.66
2019-02-15T14:22:05.641Z,96188.84
2019-02-15T14:24:34.108Z,96181.05
2019-02-15T14:27:00.881Z,96183.70
2019-02-15T14:29:26.898Z,96184.55
2019-02-15T14:31:53.093Z,96181.30
2019-02-15T14:34:19.091Z,96174.66
2019-02-15T14:36:45.267Z,96179.80
2019-02-15T14:39:11.420Z,96176.56
2019-02-15T14:41:37.622Z,96169.44
2019-02-15T14:44:03.766Z,96172.09
2019-02-15T14:46:29.763Z,96166.36
2019-02-15T14:48:56.405Z,96179.16
2019-02-15T14:51:22.946Z,96176.56
2019-02-15T14:53:49.099Z,96185.53
2019-02-15T14:56:15.095Z,96193.50
2019-02-15T14:58:42.698Z,96188.45
2019-02-15T15:01:08.826Z,96183.53
2019-02-15T15:03:35.234Z,96188.03
2019-02-15T15:06:01.666Z,96187.19
2019-02-15T15:08:30.783Z,96182.20
2019-02-15T15:10:59.644Z,96183.88
2019-02-15T15:13:30.299Z,96178.73
2019-02-15T15:15:56.553Z,96177.89
2019-02-15T15:18:22.782Z,96180.65
2019-02-15T15:20:51.235Z,96166.85
2019-02-15T15:23:17.699Z,96170.09
2019-02-15T15:25:44.543Z,96175.82
2019-02-15T15:28:13.900Z,96174.56
2019-02-15T15:30:39.958Z,96177.73
2019-02-15T15:33:08.957Z,96182.14
2019-02-15T15:35:35.451Z,96178.64
2019-02-15T15:38:01.635Z,96183.37
2019-02-15T15:40:28.537Z,96184.38
2019-02-15T15:42:54.727Z,96184.44
2019-02-15T15:45:21.076Z,96191.99
2019-02-15T15:47:47.334Z,96199.90
2019-02-15T15:50:13.532Z,96203.05
2019-02-15T15:52:39.569Z,96199.16
2019-02-15T15:55:08.566Z,96208.36
2019-02-15T15:57:37.265Z,96210.95
2019-02-15T16:00:03.501Z,96214.94
2019-02-15T16:02:29.726Z,96214.94
2019-02-15T16:04:56.045Z,96216.27
2019-02-15T16:07:22.511Z,96221.16
2019-02-15T16:09:49.953Z,96225.14
2019-02-15T16:12:16.864Z,96221.64
2019-02-15T16:14:43.488Z,96222.06
2019-02-15T16:17:09.514Z,96233.11
2019-02-15T16:19:40.447Z,96237.09
2019-02-15T16:22:01.695Z,96238.27
2019-02-15T16:24:27.910Z,96233.95
2019-02-15T16:26:54.199Z,96242.25
2019-02-15T16:29:20.615Z,96241.77
2019-02-15T16:31:47.264Z,96238.58
2019-02-15T16:34:13.616Z,96253.20
2019-02-15T16:36:39.618Z,96253.13
2019-02-15T16:39:05.654Z,96255.27
2019-02-15T16:41:31.972Z,96265.25
2019-02-15T16:43:58.605Z,96270.72
2019-02-15T16:46:25.029Z,96274.48
2019-02-15T16:48:51.892Z,96283.45
2019-02-15T16:51:18.397Z,96277.13
2019-02-15T16:53:46.415Z,96280.96
2019-02-15T16:56:12.491Z,96283.90
2019-02-15T17:01:20.031Z,96291.42
2019-02-15T17:04:05.731Z,96297.69
2019-02-15T17:06:35.344Z,96296.84
2019-02-15T17:09:01.985Z,96304.55
2019-02-15T17:11:28.495Z,96309.03
2019-02-15T17:13:54.804Z,96313.86
2019-02-15T17:16:20.996Z,96313.11
2019-02-15T17:18:51.726Z,96317.84
2019-02-15T17:21:13.336Z,96324.65
2019-02-15T17:23:39.471Z,96320.24
2019-02-15T17:26:05.870Z,96323.58
2019-02-15T17:28:32.836Z,96322.41
2019-02-15T17:30:59.348Z,96330.29
2019-02-15T17:33:25.386Z,96329.05
2019-02-15T17:35:51.914Z,96329.90
2019-02-15T17:38:17.938Z,96327.37
2019-02-15T17:40:44.405Z,96327.73
2019-02-15T17:43:11.038Z,96325.66
2019-02-15T17:45:38.407Z,96327.24
2019-02-15T17:48:08.401Z,96325.49
2019-02-15T17:50:35.184Z,96327.73
2019-02-15T17:53:03.637Z,96329.90
2019-02-15T17:55:30.993Z,96321.41
2019-02-15T17:58:00.485Z,96324.16
2019-02-15T18:00:29.591Z,96325.81
2019-02-15T18:02:56.407Z,96327.14
2019-02-15T18:05:29.113Z,96339.53
2019-02-15T18:07:57.188Z,96333.30
2019-02-15T18:10:34.288Z,96329.97
2019-02-15T18:13:00.443Z,96333.72
2019-02-15T18:15:26.909Z,96331.98
2019-02-15T18:17:53.314Z,96333.56
2019-02-15T18:20:22.258Z,96342.70
2019-02-15T18:22:49.488Z,96338.78
2019-02-15T18:25:17.893Z,96334.37
2019-02-15T18:27:51.415Z,96338.72
2019-02-15T18:30:17.430Z,96336.28
2019-02-15T18:32:43.557Z,96339.95
2019-02-15T18:35:09.779Z,96328.56
2019-02-15T18:37:35.979Z,96341.77
2019-02-15T18:40:02.940Z,96342.28
2019-02-15T18:42:29.078Z,96346.85
2019-02-15T18:44:55.416Z,96342.12
2019-02-15T18:47:21.951Z,96340.79
2019-02-15T18:49:48.150Z,96352.81
2019-02-15T18:52:15.321Z,96353.56
2019-02-15T18:54:42.484Z,96357.64
2019-02-15T18:57:08.768Z,96346.33
2019-02-15T18:59:34.974Z,96350.25
2019-02-15T19:02:01.379Z,96350.52
2019-02-15T19:04:28.649Z,96347.92
2019-02-15T19:06:56.776Z,96347.44
2019-02-15T19:09:28.877Z,96348.34
2019-02-15T19:11:55.276Z,96348.02
2019-02-15T19:14:21.468Z,96346.59
2019-02-15T19:16:47.745Z,96354.98
2019-02-15T19:19:16.731Z,96342.61
2019-02-15T19:21:42.970Z,96343.77
2019-02-15T19:24:09.401Z,96349.09
2019-02-15T19:26:39.519Z,96352.91
2019-02-15T19:29:06.137Z,96347.53
2019-02-15T19:31:32.551Z,96356.58
2019-02-15T19:33:58.764Z,96351.75
2019-02-15T19:36:25.785Z,96354.17
2019-02-15T19:38:57.098Z,96348.53
2019-02-15T19:41:25.282Z,96356.90
2019-02-15T19:43:51.288Z,96347.59
2019-02-15T19:46:17.372Z,96351.20
2019-02-15T19:48:43.387Z,96344.19
2019-02-15T19:51:09.413Z,96348.44
2019-02-15T19:53:35.396Z,96345.20
2019-02-15T19:56:01.402Z,96345.61
2019-02-15T19:58:27.402Z,96344.55
2019-02-15T20:00:53.515Z,96341.47
2019-02-15T20:03:19.515Z,96340.72
2019-02-15T20:05:45.521Z,96338.91
2019-02-15T20:08:11.594Z,96339.81
2019-02-15T20:10:37.623Z,96341.08
2019-02-15T20:13:03.619Z,96344.96
2019-02-15T20:15:29.618Z,96342.83
2019-02-15T20:17:55.625Z,96339.06
2019-02-15T20:20:21.621Z,96335.84
2019-02-15T20:22:47.626Z,96332.94
2019-02-15T20:25:13.655Z,96340.48
2019-02-15T20:27:39.662Z,96334.59
2019-02-15T20:30:05.657Z,96339.06
2019-02-15T20:32:31.732Z,96343.47
2019-02-15T20:34:57.728Z,96340.33
2019-02-15T20:37:23.729Z,96342.14
2019-02-15T20:39:49.765Z,96336.92
2019-02-15T20:42:16.617Z,96340.39
2019-02-15T20:44:50.865Z,96343.98
2019-02-15T20:47:18.193Z,96336.98
2019-02-15T20:49:44.935Z,96338.31
2019-02-15T20:52:11.880Z,96340.33
2019-02-15T20:54:38.518Z,96343.47
2019-02-15T20:57:04.552Z,96345.32
2019-02-15T20:59:30.562Z,96341.81
2019-02-15T21:01:56.586Z,96342.14
2019-02-15T21:04:22.618Z,96342.82
2019-02-15T21:06:48.619Z,96343.66
2019-02-15T21:09:14.622Z,96345.22
2019-02-15T21:11:40.910Z,96349.89
2019-02-15T21:14:06.940Z,96349.79
2019-02-15T21:16:33.004Z,96349.98
2019-02-15T21:18:59.016Z,96347.97
2019-02-15T21:21:25.023Z,96349.82
2019-02-15T21:23:51.072Z,96356.86
2019-02-15T21:26:17.088Z,96356.86
2019-02-15T21:28:43.099Z,96356.30
2019-02-15T21:31:09.097Z,96357.53
2019-02-15T21:33:35.090Z,96348.65
2019-02-15T21:36:01.083Z,96359.28
2019-02-15T21:38:27.106Z,96360.19
2019-02-15T21:40:53.236Z,96356.95
2019-02-15T21:43:19.393Z,96352.28
2019-02-15T21:45:45.462Z,96367.94
2019-02-15T21:48:11.464Z,96360.13
2019-02-15T21:50:37.465Z,96360.13
2019-02-15T21:53:03.463Z,96354.97
2019-02-15T21:55:29.464Z,96356.72
2019-02-15T21:58:01.391Z,96354.31
2019-02-15T22:00:21.539Z,96356.63
2019-02-15T22:02:47.533Z,96356.98
2019-02-15T22:05:13.541Z,96356.98
2019-02-15T22:07:39.537Z,96356.55
2019-02-15T22:10:05.548Z,96353.66
2019-02-15T22:12:31.544Z,96354.67
2019-02-15T22:14:57.547Z,96353.34
2019-02-15T22:17:23.549Z,96359.08
2019-02-15T22:19:49.580Z,96351.00
2019-02-15T22:22:15.576Z,96351.17
2019-02-15T22:24:41.610Z,96358.37
2019-02-15T22:27:07.607Z,96360.05
2019-02-15T22:29:33.622Z,96359.64
2019-02-15T22:31:59.619Z,96364.95
2019-02-15T22:34:25.636Z,96359.57
2019-02-15T22:36:51.644Z,96367.77
2019-02-15T22:39:17.633Z,96367.13
2019-02-15T22:41:43.660Z,96364.95
2019-02-15T22:44:09.660Z,96363.20
2019-02-15T22:46:35.659Z,96360.31
2019-02-15T22:49:01.655Z,96356.48
2019-02-15T22:51:27.652Z,96355.09
2019-02-15T22:53:53.656Z,96355.16
2019-02-15T22:56:19.651Z,96348.94
2019-02-15T22:58:45.675Z,96354.67
2019-02-15T23:01:11.676Z,96352.50
2019-02-15T23:03:37.678Z,96352.86
2019-02-15T23:06:03.680Z,96355.00
2019-02-15T23:08:29.677Z,96351.00
2019-02-15T23:10:55.683Z,96346.59
2019-02-15T23:13:21.683Z,96352.27
2019-02-15T23:15:47.687Z,96355.77
2019-02-15T23:18:13.681Z,96351.36
2019-02-15T23:20:45.244Z,96351.84
2019-02-15T23:23:05.684Z,96347.60
2019-02-15T23:25:31.689Z,96349.93
2019-02-15T23:27:57.683Z,96352.95
2019-02-15T23:30:23.672Z,96352.11
2019-02-15T23:32:49.680Z,96358.33
2019-02-15T23:35:15.688Z,96347.70
2019-02-15T23:37:41.690Z,96351.27
2019-02-15T23:40:07.682Z,96348.02
2019-02-15T23:42:33.684Z,96351.20
2019-02-15T23:44:59.683Z,96355.83
2019-02-15T23:47:25.691Z,96355.51
2019-02-15T23:49:51.752Z,96349.45
2019-02-15T23:52:17.760Z,96351.62
2019-02-15T23:54:43.757Z,96352.42
2019-02-15T23:57:09.785Z,96351.09
2019-02-15T23:59:35.783Z,96355.18
